logo
Search for airport 
image banner adimage banner adimage banner ad
image banner ad

LGNISY - Nisyros

Located in Mandraki, Greece

ICAO - , IATA -

Data provided by Airmate  

General information

Coordinates: N36°36'14" E27°7'54"
Elevation is 322 feet MSL.
Magnetic variation is 5° East
View others Airports in Dodecanese

Operational data

Special qualification required
Current time UTC:
Current local time:
Weather at : LGKO - Kos / Ippokratis ( 22 km )
METAR: LGKO 200720Z 23013KT 9999 BKN018 15/11 Q1004 RETS
TAF: TAF LGKO 200500Z 2006/2106 25022KT 9999 SCT018 BECMG 2014/2016 31020G30KT BECMG 2016/2018 31020KT BECMG 2019/2021 30012KT PROB40 TEMPO 2006/2015 5000 RA FEW010 FEW018TCU BKN020 PROB40 TEMPO 2006/2009 3000 TSRA SCT010 FEW016CB BKN020
View NOTAMs / SUP AIP / TFR affecting this airport [VIEW]
Communications frequencies: [VIEW]

Runways:

Airport contact information

Address: Mandraki Greece

Satellite view of LGNISY